createdAt,value
2018-05-25T00:01:21.676Z,61.70
2018-05-25T00:03:50.092Z,61.50
2018-05-25T00:06:18.554Z,61.30
2018-05-25T00:08:46.972Z,61.00
2018-05-25T00:11:15.412Z,60.83
2018-05-25T00:13:43.869Z,60.88
2018-05-25T00:16:12.287Z,60.90
2018-05-25T00:18:40.694Z,60.85
2018-05-25T00:21:09.170Z,61.08
2018-05-25T00:23:37.588Z,61.41
2018-05-25T00:26:06.044Z,61.34
2018-05-25T00:28:34.496Z,61.52
2018-05-25T00:31:02.926Z,61.81
2018-05-25T00:33:31.341Z,62.23
2018-05-25T00:35:59.834Z,62.19
2018-05-25T00:38:28.245Z,62.45
2018-05-25T00:40:56.666Z,62.48
2018-05-25T00:43:25.130Z,62.39
2018-05-25T00:45:53.543Z,61.93
2018-05-25T00:48:21.974Z,61.48
2018-05-25T00:50:50.446Z,61.34
2018-05-25T00:53:18.870Z,60.91
2018-05-25T00:55:47.294Z,60.71
2018-05-25T00:58:15.748Z,60.52
2018-05-25T01:00:44.164Z,60.46
2018-05-25T01:03:12.588Z,60.50
2018-05-25T01:05:41.287Z,60.73
2018-05-25T01:08:09.697Z,61.22
2018-05-25T01:10:38.116Z,61.67
2018-05-25T01:13:06.569Z,62.20
2018-05-25T01:15:34.995Z,62.67
2018-05-25T01:18:03.408Z,63.07
2018-05-25T01:20:31.864Z,63.09
2018-05-25T01:23:00.272Z,63.60
2018-05-25T01:25:28.705Z,64.12
2018-05-25T01:27:57.183Z,64.53
2018-05-25T01:30:25.622Z,64.70
2018-05-25T01:32:54.046Z,64.53
2018-05-25T01:35:22.522Z,64.36
2018-05-25T01:37:50.944Z,64.45
2018-05-25T01:40:19.364Z,64.44
2018-05-25T01:42:47.836Z,64.24
2018-05-25T01:45:16.262Z,64.31
2018-05-25T01:47:44.679Z,64.20
2018-05-25T01:50:13.297Z,64.05
2018-05-25T01:52:41.735Z,64.10
2018-05-25T01:55:10.160Z,64.03
2018-05-25T01:57:38.625Z,64.07
2018-05-25T02:00:07.086Z,64.05
2018-05-25T02:02:35.504Z,64.13
2018-05-25T02:05:04.174Z,64.05
2018-05-25T02:07:32.604Z,64.48
2018-05-25T02:10:01.032Z,64.86
2018-05-25T02:12:29.488Z,65.79
2018-05-25T02:14:57.904Z,65.79
2018-05-25T02:17:26.328Z,65.25
2018-05-25T02:19:54.784Z,65.75
2018-05-25T02:22:23.206Z,65.88
2018-05-25T02:24:51.630Z,65.50
2018-05-25T02:27:20.085Z,65.54
2018-05-25T02:29:48.501Z,65.46
2018-05-25T02:32:16.920Z,65.37
2018-05-25T02:34:45.380Z,65.26
2018-05-25T02:37:13.809Z,65.44
2018-05-25T02:39:42.240Z,66.21
2018-05-25T02:42:10.705Z,66.74
2018-05-25T02:44:39.129Z,66.71
2018-05-25T02:47:07.549Z,67.20
2018-05-25T02:49:36.029Z,67.29
2018-05-25T02:52:04.485Z,67.50
2018-05-25T02:54:32.908Z,67.86
2018-05-25T02:57:01.384Z,67.88
2018-05-25T02:59:29.810Z,67.19
2018-05-25T03:01:58.268Z,67.65
2018-05-25T03:04:26.731Z,66.99
2018-05-25T03:06:55.159Z,67.07
2018-05-25T03:09:23.585Z,67.16
2018-05-25T03:11:52.053Z,67.22
2018-05-25T03:14:20.472Z,67.23
2018-05-25T03:16:48.892Z,69.30
2018-05-25T03:19:17.371Z,70.14
2018-05-25T03:21:45.809Z,72.42
2018-05-25T03:24:14.236Z,71.88
2018-05-25T03:26:42.700Z,71.16
2018-05-25T03:29:11.141Z,69.55
2018-05-25T03:31:39.566Z,68.62
2018-05-25T03:34:08.032Z,68.16
2018-05-25T03:36:36.460Z,68.21
2018-05-25T03:39:05.801Z,68.16
2018-05-25T03:41:34.259Z,68.80
2018-05-25T03:44:02.695Z,68.78
2018-05-25T03:46:31.120Z,69.15
2018-05-25T03:48:59.599Z,69.12
2018-05-25T03:51:28.028Z,68.52
2018-05-25T03:53:56.456Z,68.52
2018-05-25T03:56:24.913Z,66.72
2018-05-25T03:59:05.053Z,69.24
2018-05-25T04:01:45.265Z,69.55
2018-05-25T04:04:13.688Z,69.49
2018-05-25T04:06:42.102Z,69.69
2018-05-25T04:09:10.558Z,68.22
2018-05-25T04:11:38.988Z,66.89
2018-05-25T04:14:07.397Z,66.37
2018-05-25T04:16:35.870Z,66.28
2018-05-25T04:19:04.292Z,66.07
2018-05-25T04:21:32.703Z,65.84
2018-05-25T04:24:01.169Z,65.42
2018-05-25T04:26:29.585Z,65.27
2018-05-25T04:28:58.008Z,64.71
2018-05-25T04:31:26.462Z,64.05
2018-05-25T04:33:54.884Z,63.69
2018-05-25T04:36:23.305Z,63.76
2018-05-25T04:38:51.762Z,63.63
2018-05-25T04:41:20.181Z,63.76
2018-05-25T04:43:48.607Z,63.03
2018-05-25T04:46:17.076Z,63.28
2018-05-25T04:48:45.509Z,62.99
2018-05-25T04:51:13.928Z,63.76
2018-05-25T04:53:42.602Z,62.66
2018-05-25T04:56:11.011Z,63.49
2018-05-25T04:58:39.424Z,63.51
2018-05-25T05:01:07.899Z,63.99
2018-05-25T05:03:36.312Z,63.96
2018-05-25T05:06:04.776Z,63.18
2018-05-25T05:08:33.234Z,63.69
2018-05-25T05:11:01.664Z,63.52
2018-05-25T05:13:30.091Z,63.68
2018-05-25T05:15:58.541Z,63.52
2018-05-25T05:18:26.960Z,63.54
2018-05-25T05:20:55.380Z,63.38
2018-05-25T05:23:23.841Z,63.12
2018-05-25T05:25:52.494Z,63.10
2018-05-25T05:28:21.851Z,62.92
2018-05-25T05:30:50.312Z,62.74
2018-05-25T05:33:18.729Z,62.89
2018-05-25T05:35:47.141Z,62.29
2018-05-25T05:38:15.620Z,61.92
2018-05-25T05:40:44.033Z,61.29
2018-05-25T05:43:12.444Z,61.31
2018-05-25T05:45:40.892Z,62.20
2018-05-25T05:48:09.314Z,61.98
2018-05-25T05:50:37.737Z,61.49
2018-05-25T05:53:06.186Z,60.30
2018-05-25T05:55:34.600Z,59.68
2018-05-25T05:58:03.028Z,59.33
2018-05-25T06:00:31.508Z,58.98
2018-05-25T06:02:59.964Z,58.94
2018-05-25T06:05:28.693Z,59.81
2018-05-25T06:07:57.164Z,60.10
2018-05-25T06:10:25.597Z,60.08
2018-05-25T06:12:54.054Z,58.41
2018-05-25T06:15:22.541Z,59.36
2018-05-25T06:17:50.972Z,58.23
2018-05-25T06:20:19.400Z,59.14
2018-05-25T06:22:47.865Z,58.03
2018-05-25T06:25:16.303Z,58.38
2018-05-25T06:27:44.737Z,58.78
2018-05-25T06:30:13.217Z,58.78
2018-05-25T06:32:41.649Z,58.79
2018-05-25T06:35:10.453Z,58.44
2018-05-25T06:37:38.908Z,58.21
2018-05-25T06:40:07.341Z,58.78
2018-05-25T06:42:35.779Z,57.79
2018-05-25T06:45:04.289Z,58.26
2018-05-25T06:47:32.729Z,58.37
2018-05-25T06:50:01.192Z,57.23
2018-05-25T06:52:29.666Z,57.27
2018-05-25T06:54:58.099Z,57.25
2018-05-25T06:57:26.533Z,57.91
2018-05-25T06:59:54.995Z,58.56
2018-05-25T07:02:23.444Z,58.30
2018-05-25T07:04:51.860Z,57.62
2018-05-25T07:07:20.345Z,57.38
2018-05-25T07:09:48.779Z,57.53
2018-05-25T07:12:17.204Z,56.92
2018-05-25T07:14:45.660Z,56.26
2018-05-25T07:17:14.088Z,57.26
2018-05-25T07:19:42.509Z,57.67
2018-05-25T07:22:10.985Z,57.79
2018-05-25T07:24:39.423Z,57.47
2018-05-25T07:27:07.852Z,56.70
2018-05-25T07:29:36.305Z,56.22
2018-05-25T07:32:04.741Z,56.03
2018-05-25T07:34:33.163Z,56.34
2018-05-25T07:37:01.637Z,55.99
2018-05-25T07:39:30.082Z,56.44
2018-05-25T07:41:58.511Z,55.95
2018-05-25T07:44:26.984Z,55.18
2018-05-25T07:46:55.400Z,55.83
2018-05-25T07:49:23.824Z,55.67
2018-05-25T07:51:52.295Z,56.30
2018-05-25T07:54:20.758Z,54.95
2018-05-25T07:56:49.186Z,55.18
2018-05-25T07:59:17.665Z,55.79
2018-05-25T08:01:46.093Z,55.30
2018-05-25T08:04:14.520Z,54.90
2018-05-25T08:06:42.988Z,55.23
2018-05-25T08:09:11.415Z,54.35
2018-05-25T08:11:39.838Z,52.99
2018-05-25T08:14:08.300Z,53.83
2018-05-25T08:16:36.725Z,54.10
2018-05-25T08:19:05.153Z,53.84
2018-05-25T08:21:33.651Z,53.65
2018-05-25T08:24:02.081Z,52.83
2018-05-25T08:26:30.500Z,54.11
2018-05-25T08:28:58.957Z,54.39
2018-05-25T08:31:27.384Z,54.32
2018-05-25T08:33:55.808Z,52.71
2018-05-25T08:36:24.281Z,53.27
2018-05-25T08:38:52.705Z,53.16
2018-05-25T08:41:21.157Z,52.43
2018-05-25T08:43:49.640Z,53.27
2018-05-25T08:46:18.063Z,52.53
2018-05-25T08:48:46.506Z,51.49
2018-05-25T08:51:14.968Z,51.18
2018-05-25T08:53:43.391Z,50.93
2018-05-25T08:56:12.561Z,51.55
2018-05-25T08:58:41.065Z,51.45
2018-05-25T09:01:09.488Z,50.55
2018-05-25T09:03:37.910Z,51.40
2018-05-25T09:06:06.381Z,51.04
2018-05-25T09:08:34.815Z,51.27
2018-05-25T09:11:03.268Z,50.79
2018-05-25T09:13:31.749Z,51.37
2018-05-25T09:16:00.179Z,50.20
2018-05-25T09:18:28.593Z,50.20
2018-05-25T09:20:57.069Z,49.69
2018-05-25T09:23:25.501Z,49.71
2018-05-25T09:25:53.925Z,50.59
2018-05-25T09:28:22.545Z,49.74
2018-05-25T09:30:51.025Z,50.34
2018-05-25T09:33:19.452Z,49.95
2018-05-25T09:35:47.928Z,51.31
2018-05-25T09:38:16.344Z,50.31
2018-05-25T09:40:44.772Z,48.46
2018-05-25T09:43:13.286Z,49.23
2018-05-25T09:45:41.710Z,50.25
2018-05-25T09:48:10.133Z,50.65
2018-05-25T09:50:38.590Z,49.47
2018-05-25T09:53:07.016Z,49.32
2018-05-25T09:55:35.462Z,50.26
2018-05-25T09:58:03.927Z,50.44
2018-05-25T10:00:32.352Z,49.75
2018-05-25T10:03:00.798Z,50.25
2018-05-25T10:05:29.325Z,48.53
2018-05-25T10:07:57.753Z,48.31
2018-05-25T10:10:26.211Z,48.18
2018-05-25T10:12:54.688Z,47.92
2018-05-25T10:15:23.104Z,48.86
2018-05-25T10:17:51.544Z,47.40
2018-05-25T10:20:20.024Z,46.84
2018-05-25T10:22:48.445Z,47.45
2018-05-25T10:25:16.867Z,46.68
2018-05-25T10:27:45.337Z,45.73
2018-05-25T10:30:13.761Z,45.39
2018-05-25T10:32:42.186Z,45.18
2018-05-25T10:35:10.713Z,45.56
2018-05-25T10:37:39.096Z,46.42
2018-05-25T10:40:07.549Z,46.25
2018-05-25T10:42:36.010Z,46.97
2018-05-25T10:45:04.444Z,46.60
2018-05-25T10:47:32.868Z,46.22
2018-05-25T10:50:01.337Z,45.84
2018-05-25T10:52:29.794Z,46.54
2018-05-25T10:54:58.232Z,46.08
2018-05-25T10:57:26.684Z,46.17
2018-05-25T10:59:55.120Z,46.64
2018-05-25T11:02:23.540Z,45.79
2018-05-25T11:04:52.007Z,45.94
2018-05-25T11:07:20.432Z,46.20
2018-05-25T11:09:48.859Z,46.39
2018-05-25T11:12:17.327Z,47.73
2018-05-25T11:14:45.744Z,46.51
2018-05-25T11:17:14.168Z,46.68
2018-05-25T11:19:42.631Z,46.26
2018-05-25T11:22:11.054Z,45.77
2018-05-25T11:24:39.481Z,46.06
2018-05-25T11:27:07.962Z,46.30
2018-05-25T11:29:36.396Z,47.20
2018-05-25T11:32:04.823Z,46.40
2018-05-25T11:34:33.287Z,46.67
2018-05-25T11:37:01.719Z,45.51
2018-05-25T11:39:30.150Z,47.17
2018-05-25T11:41:58.634Z,46.43
2018-05-25T11:44:27.049Z,45.72
2018-05-25T11:46:55.472Z,45.70
2018-05-25T11:49:24.300Z,46.20
2018-05-25T11:51:52.741Z,45.39
2018-05-25T11:54:21.169Z,45.65
2018-05-25T11:56:49.636Z,44.34
2018-05-25T11:59:18.053Z,44.03
2018-05-25T12:01:46.487Z,43.61
2018-05-25T12:04:14.949Z,43.67
2018-05-25T12:06:43.369Z,43.86
2018-05-25T12:09:11.788Z,43.78
2018-05-25T12:11:40.249Z,42.69
2018-05-25T12:14:08.686Z,41.54
2018-05-25T12:16:37.127Z,41.84
2018-05-25T12:19:05.585Z,42.65
2018-05-25T12:21:34.005Z,41.72
2018-05-25T12:24:02.429Z,41.54
2018-05-25T12:26:30.913Z,41.43
2018-05-25T12:28:59.350Z,42.09
2018-05-25T12:31:27.780Z,41.97
2018-05-25T12:33:56.236Z,41.37
2018-05-25T12:36:24.652Z,41.16
2018-05-25T12:38:53.061Z,40.98
2018-05-25T12:41:22.212Z,40.86
2018-05-25T12:43:50.637Z,40.39
2018-05-25T12:46:19.060Z,39.86
2018-05-25T12:48:47.532Z,38.30
2018-05-25T12:51:15.966Z,38.22
2018-05-25T12:53:44.383Z,38.56
2018-05-25T12:56:12.839Z,38.90
2018-05-25T12:58:41.250Z,39.62
2018-05-25T13:01:09.680Z,40.07
2018-05-25T13:03:38.137Z,41.17
2018-05-25T13:06:06.552Z,41.28
2018-05-25T13:08:34.972Z,41.78
2018-05-25T13:11:03.439Z,41.38
2018-05-25T13:13:31.880Z,41.34
2018-05-25T13:16:00.296Z,41.47
2018-05-25T13:18:28.760Z,42.48
2018-05-25T13:20:57.176Z,42.62
2018-05-25T13:23:25.597Z,42.28
2018-05-25T13:25:54.053Z,41.87
2018-05-25T13:28:22.499Z,42.62
2018-05-25T13:30:50.931Z,41.66
2018-05-25T13:33:19.389Z,41.16
2018-05-25T13:35:47.859Z,40.90
2018-05-25T13:38:16.285Z,41.36
2018-05-25T13:40:44.762Z,41.90
2018-05-25T13:43:13.173Z,41.82
2018-05-25T13:45:41.590Z,41.99
2018-05-25T13:48:10.059Z,41.86
2018-05-25T13:50:38.504Z,41.48
2018-05-25T13:53:06.940Z,42.10
2018-05-25T13:55:35.413Z,42.40
2018-05-25T13:58:03.864Z,41.06
2018-05-25T14:00:32.284Z,40.37
2018-05-25T14:03:00.743Z,41.01
2018-05-25T14:05:29.168Z,42.34
2018-05-25T14:07:57.581Z,41.81
2018-05-25T14:10:26.048Z,42.11
2018-05-25T14:12:54.476Z,39.99
2018-05-25T14:15:22.917Z,40.27
2018-05-25T14:17:51.381Z,40.27
2018-05-25T14:20:19.797Z,40.31
2018-05-25T14:22:48.236Z,41.01
2018-05-25T14:25:16.693Z,39.57
2018-05-25T14:27:45.109Z,38.85
2018-05-25T14:30:13.525Z,38.78
2018-05-25T14:32:41.990Z,39.98
2018-05-25T14:35:10.412Z,39.28
2018-05-25T14:37:38.825Z,39.63
2018-05-25T14:40:07.293Z,39.07
2018-05-25T14:42:35.716Z,38.43
2018-05-25T14:45:04.164Z,39.52
2018-05-25T14:47:32.637Z,40.25
2018-05-25T14:50:01.058Z,40.80
2018-05-25T14:52:29.472Z,39.07
2018-05-25T14:54:57.929Z,40.52
2018-05-25T14:57:26.349Z,40.66
2018-05-25T14:59:54.775Z,40.12
2018-05-25T15:02:23.228Z,39.79
2018-05-25T15:04:51.639Z,40.49
2018-05-25T15:07:20.060Z,40.01
2018-05-25T15:09:48.534Z,39.52
2018-05-25T15:12:16.957Z,39.18
2018-05-25T15:14:45.368Z,40.77
2018-05-25T15:17:13.824Z,39.83
2018-05-25T15:19:42.255Z,39.01
2018-05-25T15:22:10.678Z,38.46
2018-05-25T15:24:39.140Z,38.46
2018-05-25T15:27:07.556Z,37.96
2018-05-25T15:29:36.073Z,39.04
2018-05-25T15:32:04.517Z,37.89
2018-05-25T15:34:32.936Z,38.78
2018-05-25T15:37:01.364Z,38.33
2018-05-25T15:39:29.824Z,38.90
2018-05-25T15:41:58.246Z,38.46
2018-05-25T15:44:26.664Z,38.12
2018-05-25T15:46:55.125Z,38.54
2018-05-25T15:49:23.554Z,40.29
2018-05-25T15:51:52.005Z,38.75
2018-05-25T15:54:20.484Z,38.52
2018-05-25T15:56:48.910Z,37.44
2018-05-25T15:59:17.337Z,38.23
2018-05-25T16:01:45.807Z,37.29
2018-05-25T16:04:14.225Z,37.80
2018-05-25T16:06:42.654Z,37.15
2018-05-25T16:09:11.120Z,38.94
2018-05-25T16:11:39.532Z,38.20
2018-05-25T16:14:07.965Z,36.31
2018-05-25T16:16:36.420Z,36.73
2018-05-25T16:19:04.856Z,37.58
2018-05-25T16:21:33.266Z,37.90
2018-05-25T16:24:01.731Z,37.88
2018-05-25T16:26:30.147Z,36.68
2018-05-25T16:28:58.608Z,36.08
2018-05-25T16:31:27.041Z,35.72
2018-05-25T16:33:55.449Z,36.24
2018-05-25T16:36:23.888Z,36.11
2018-05-25T16:38:52.348Z,37.37
2018-05-25T16:41:20.768Z,38.02
2018-05-25T16:43:49.184Z,38.50
2018-05-25T16:46:17.644Z,38.65
2018-05-25T16:48:46.075Z,38.86
2018-05-25T16:51:14.489Z,39.24
2018-05-25T16:53:42.950Z,40.27
2018-05-25T16:56:11.401Z,39.89
2018-05-25T16:58:39.828Z,40.02
2018-05-25T17:01:08.301Z,40.08
2018-05-25T17:03:36.721Z,39.88
2018-05-25T17:06:05.168Z,40.68
2018-05-25T17:08:33.628Z,40.75
2018-05-25T17:11:02.053Z,40.91
2018-05-25T17:13:30.492Z,40.69
2018-05-25T17:15:58.960Z,41.17
2018-05-25T17:18:27.394Z,40.62
2018-05-25T17:20:55.825Z,40.61
2018-05-25T17:23:24.301Z,40.52
2018-05-25T17:25:52.735Z,39.79
2018-05-25T17:28:21.161Z,40.14
2018-05-25T17:30:49.693Z,41.40
2018-05-25T17:33:18.093Z,42.25
2018-05-25T17:35:46.528Z,43.36
2018-05-25T17:38:14.988Z,43.87
2018-05-25T17:40:43.417Z,44.40
2018-05-25T17:43:11.844Z,44.61
2018-05-25T17:45:40.332Z,44.53
2018-05-25T17:48:08.780Z,45.21
2018-05-25T17:50:37.213Z,43.45
2018-05-25T17:53:05.679Z,44.17
2018-05-25T17:55:34.112Z,44.58
2018-05-25T17:58:02.545Z,45.21
2018-05-25T18:00:31.037Z,45.05
2018-05-25T18:02:59.474Z,45.37
2018-05-25T18:05:27.895Z,46.28
2018-05-25T18:07:56.373Z,45.80
2018-05-25T18:10:24.817Z,45.96
2018-05-25T18:12:53.240Z,46.17
2018-05-25T18:15:21.730Z,46.99
2018-05-25T18:17:50.235Z,48.41
2018-05-25T18:20:18.644Z,48.17
2018-05-25T18:22:47.109Z,48.14
2018-05-25T18:25:15.525Z,47.71
2018-05-25T18:27:43.949Z,48.22
2018-05-25T18:30:12.405Z,48.46
2018-05-25T18:32:40.823Z,48.93
2018-05-25T18:35:09.249Z,48.99
2018-05-25T18:37:37.722Z,49.08
2018-05-25T18:40:06.138Z,49.08
2018-05-25T18:42:34.579Z,49.31
2018-05-25T18:45:03.058Z,49.27
2018-05-25T18:47:31.498Z,49.20
2018-05-25T18:49:59.915Z,49.50
2018-05-25T18:52:28.392Z,48.98
2018-05-25T18:54:56.810Z,48.47
2018-05-25T18:57:25.234Z,48.89
2018-05-25T18:59:53.703Z,49.14
2018-05-25T19:02:22.147Z,49.03
2018-05-25T19:04:50.635Z,49.24
2018-05-25T19:07:19.140Z,48.98
2018-05-25T19:09:47.566Z,49.05
2018-05-25T19:12:16.008Z,49.92
2018-05-25T19:14:44.486Z,50.51
2018-05-25T19:17:12.923Z,51.39
2018-05-25T19:19:41.354Z,52.99
2018-05-25T19:22:09.824Z,53.50
2018-05-25T19:24:38.252Z,54.59
2018-05-25T19:27:06.680Z,55.37
2018-05-25T19:29:35.245Z,55.46
2018-05-25T19:32:03.693Z,55.02
2018-05-25T19:34:32.120Z,54.07
2018-05-25T19:37:00.582Z,53.78
2018-05-25T19:39:29.021Z,53.13
2018-05-25T19:41:57.450Z,52.28
2018-05-25T19:44:25.921Z,52.95
2018-05-25T19:46:54.367Z,53.22
2018-05-25T19:49:22.791Z,53.03
2018-05-25T19:51:51.365Z,53.09
2018-05-25T19:54:19.798Z,53.49
2018-05-25T19:56:48.233Z,53.80
2018-05-25T19:59:16.698Z,54.07
2018-05-25T20:01:45.129Z,54.29
2018-05-25T20:04:13.554Z,53.97
2018-05-25T20:06:42.451Z,53.00
2018-05-25T20:09:10.968Z,52.32
2018-05-25T20:11:39.406Z,51.87
2018-05-25T20:14:07.893Z,50.93
2018-05-25T20:16:36.312Z,50.94
2018-05-25T20:19:04.756Z,50.46
2018-05-25T20:21:33.216Z,49.19
2018-05-25T20:24:01.633Z,48.66
2018-05-25T20:26:30.054Z,48.44
2018-05-25T20:28:58.561Z,47.96
2018-05-25T20:31:26.989Z,47.99
2018-05-25T20:33:55.425Z,47.95
2018-05-25T20:36:23.893Z,47.97
2018-05-25T20:38:52.321Z,48.17
2018-05-25T20:41:20.777Z,47.94
2018-05-25T20:43:49.248Z,47.99
2018-05-25T20:46:17.679Z,48.10
2018-05-25T20:48:46.117Z,48.03
2018-05-25T20:51:14.584Z,47.94
2018-05-25T20:53:43.017Z,48.04
2018-05-25T20:56:11.828Z,47.92
2018-05-25T20:58:40.313Z,47.80
2018-05-25T21:01:08.745Z,47.96
2018-05-25T21:03:37.178Z,47.86
2018-05-25T21:06:05.663Z,47.55
2018-05-25T21:08:34.079Z,47.28
2018-05-25T21:11:02.501Z,47.60
2018-05-25T21:13:30.976Z,47.51
2018-05-25T21:15:59.396Z,47.54
2018-05-25T21:18:27.811Z,47.51
2018-05-25T21:20:56.282Z,47.49
2018-05-25T21:23:24.703Z,47.65
2018-05-25T21:25:53.133Z,47.98
2018-05-25T21:30:53.741Z,48.56
2018-05-25T21:33:22.153Z,48.92
2018-05-25T21:35:50.577Z,49.28
2018-05-25T21:38:19.061Z,49.55
2018-05-25T21:40:47.482Z,49.74
2018-05-25T21:43:15.901Z,49.85
2018-05-25T21:45:44.361Z,49.98
2018-05-25T21:48:12.787Z,50.02
2018-05-25T21:50:41.221Z,49.90
2018-05-25T21:53:09.686Z,49.84
2018-05-25T21:55:38.108Z,49.78
2018-05-25T21:58:06.535Z,50.03
2018-05-25T22:00:35.044Z,49.91
2018-05-25T22:03:03.489Z,50.22
2018-05-25T22:05:31.904Z,50.21
2018-05-25T22:08:00.369Z,50.43
2018-05-25T22:10:28.809Z,50.83
2018-05-25T22:12:57.241Z,51.08
2018-05-25T22:15:25.733Z,51.25
2018-05-25T22:17:54.154Z,51.10
2018-05-25T22:20:22.573Z,50.98
2018-05-25T22:22:51.036Z,51.00
2018-05-25T22:25:19.463Z,50.97
2018-05-25T22:27:47.888Z,50.98
2018-05-25T22:30:16.367Z,50.92
2018-05-25T22:32:44.789Z,51.04
2018-05-25T22:35:13.217Z,51.23
2018-05-25T22:37:41.666Z,51.22
2018-05-25T22:40:10.087Z,51.54
2018-05-25T22:42:50.290Z,51.59
2018-05-25T22:45:30.405Z,51.44
2018-05-25T22:48:10.648Z,51.59
2018-05-25T22:50:50.921Z,51.50
2018-05-25T22:53:24.457Z,51.63
2018-05-25T22:55:52.871Z,51.74
2018-05-25T22:58:21.281Z,51.76
2018-05-25T23:00:49.761Z,51.89
2018-05-25T23:03:18.177Z,52.09
2018-05-25T23:05:46.600Z,52.41
2018-05-25T23:08:15.093Z,53.54
2018-05-25T23:10:43.521Z,54.09
2018-05-25T23:13:11.937Z,54.42
2018-05-25T23:15:40.418Z,54.65
2018-05-25T23:18:08.837Z,55.33
2018-05-25T23:20:37.265Z,56.53
2018-05-25T23:23:05.729Z,56.20
2018-05-25T23:25:34.151Z,56.10
2018-05-25T23:28:02.592Z,56.06
2018-05-25T23:30:31.057Z,56.11
2018-05-25T23:32:59.478Z,56.07
2018-05-25T23:35:27.901Z,56.12
2018-05-25T23:37:56.361Z,56.31
2018-05-25T23:40:24.797Z,56.55
2018-05-25T23:42:53.216Z,56.67
2018-05-25T23:45:21.696Z,56.77
2018-05-25T23:47:50.130Z,57.09
2018-05-25T23:50:18.554Z,57.03
2018-05-25T23:52:47.019Z,57.92
2018-05-25T23:55:15.438Z,58.64
2018-05-25T23:57:43.859Z,58.57
